Time;durP1;ratioP1;P1;durP2;ratioP2;P2;SDS_P1;SDS_P2;PMS_P1;PMS_P2;Temp;Humidity;BMP_temperature;BMP_pressure;BME280_temperature;BME280_humidity;BME280_pressure;Samples;Min_cycle;Max_cycle;Signal;HPM_P1;HPM_P2
2022/01/09 00:04:29;;;;;;;0.82;0.82;;;;;;;;;;4996921;23;20532;-87
2022/01/09 00:06:57;;;;;;;1.10;1.10;;;4.20;99.90;;;;;;5023141;28;20493;-88
2022/01/09 00:09:41;;;;;;;0.95;0.95;;;4.20;99.90;;;;;;5030895;28;20196;-87
2022/01/09 00:15:36;;;;;;;;;;;;;;;;;;;;;
2022/01/09 00:18:47;;;;;;;0.95;0.95;;;4.20;99.90;;;;;;5023098;28;20278;-88
2022/01/09 00:21:18;;;;;;;0.90;0.90;;;;;;;;;;5016076;28;20192;-84
2022/01/09 00:23:46;;;;;;;0.40;0.40;;;4.20;99.90;;;;;;5027633;28;20238;-87
2022/01/09 00:26:24;;;;;;;1.00;1.00;;;4.30;99.90;;;;;;4995454;28;20192;-87
2022/01/09 00:28:50;;;;;;;0.80;0.80;;;;;;;;;;5013641;28;20192;-87
2022/01/09 00:31:30;;;;;;;0.80;0.80;;;4.60;99.90;;;;;;5002267;28;20199;-87
2022/01/09 00:34:07;;;;;;;1.25;0.80;;;4.20;99.90;;;;;;4997702;28;20196;-86
2022/01/09 00:36:37;;;;;;;0.80;0.80;;;;;;;;;;5009883;28;20184;-87
2022/01/09 00:39:03;;;;;;;0.60;0.60;;;4.40;99.90;;;;;;5007587;28;20198;-86
2022/01/09 00:41:31;;;;;;;0.73;0.73;;;4.40;99.90;;;;;;5013804;28;20180;-86
2022/01/09 00:43:59;;;;;;;0.57;0.57;;;;;;;;;;5007329;28;20196;-86
2022/01/09 00:46:27;;;;;;;0.93;0.80;;;4.40;99.90;;;;;;5006067;28;20192;-86
2022/01/09 00:48:53;;;;;;;0.85;0.85;;;4.40;99.90;;;;;;4994107;28;20676;-87
2022/01/09 00:51:23;;;;;;;0.97;0.60;;;4.40;99.90;;;;;;5011991;28;20188;-87
2022/01/09 00:53:49;;;;;;;0.65;0.65;;;4.30;99.90;;;;;;5025856;28;20192;-87
2022/01/09 00:56:15;;;;;;;0.70;0.70;;;;;;;;;;4991237;28;20193;-86
2022/01/09 00:58:42;;;;;;;0.60;0.60;;;4.50;99.90;;;;;;5021584;28;20262;-86
2022/01/09 01:01:10;;;;;;;0.70;0.70;;;4.40;99.90;;;;;;5008932;28;20194;-87
2022/01/09 01:03:37;;;;;;;0.70;0.70;;;;;;;;;;5027717;28;20216;-87
2022/01/09 01:06:16;;;;;;;0.70;0.70;;;4.40;99.90;;;;;;5013658;28;20208;-87
2022/01/09 01:08:42;;;;;;;0.60;0.60;;;;;;;;;;5005411;28;20275;-86
2022/01/09 01:11:09;;;;;;;0.53;0.53;;;4.30;99.90;;;;;;5012958;28;20218;-86
2022/01/09 01:13:41;;;;;;;0.80;0.80;;;4.50;99.90;;;;;;4999037;28;20442;-87
2022/01/09 01:16:09;;;;;;;0.60;0.60;;;;;;;;;;5021402;28;20183;-87
2022/01/09 01:18:37;;;;;;;0.70;0.70;;;4.50;99.90;;;;;;5014508;28;20688;-86
2022/01/09 01:21:05;;;;;;;0.65;0.65;;;;;;;;;;5030695;28;20180;-88
2022/01/09 01:23:34;;;;;;;0.57;0.57;;;;;;;;;;5020695;28;20207;-88
2022/01/09 01:29:37;;;;;;;0.80;0.80;;;4.60;99.90;;;;;;4963692;28;20205;-87
2022/01/09 01:32:07;;;;;;;0.65;0.65;;;;;;;;;;4958940;28;20204;-87
2022/01/09 01:50:19;;;;;;;0.60;0.60;;;;;;;;;;4070315;22;20703;-87
2022/01/09 01:56:19;;;;;;;0.45;0.45;;;;;;;;;;5007339;23;20244;-87
2022/01/09 01:59:07;;;;;;;0.60;0.60;;;4.70;99.90;;;;;;4992338;28;20252;-86
2022/01/09 02:01:38;;;;;;;0.73;0.73;;;;;;;;;;4997449;28;20192;-87
2022/01/09 02:04:05;;;;;;;0.90;0.90;;;4.70;99.90;;;;;;4977752;28;20649;-86
2022/01/09 02:06:31;;;;;;;0.80;0.80;;;4.70;99.90;;;;;;4989716;28;20207;-85
2022/01/09 02:08:57;;;;;;;0.90;0.90;;;4.40;99.90;;;;;;5008974;28;20189;-86
2022/01/09 02:11:24;;;;;;;1.20;0.93;;;7.00;99.90;;;;;;5010076;28;20188;-86
2022/01/09 02:13:49;;;;;;;0.70;0.70;;;5.10;99.90;;;;;;4991296;28;20733;-86
2022/01/09 02:16:19;;;;;;;0.70;0.70;;;;;;;;;;4989959;28;20291;-86
2022/01/09 02:18:51;;;;;;;0.85;0.85;;;4.90;99.90;;;;;;5009175;28;20185;-87
2022/01/09 02:21:22;;;;;;;0.90;0.90;;;4.80;99.90;;;;;;4987604;28;20250;-86
2022/01/09 02:23:49;;;;;;;1.38;1.38;;;;;;;;;;5009315;28;20556;-85
2022/01/09 02:26:26;;;;;;;1.00;1.00;;;4.90;99.90;;;;;;4989687;28;20580;-85
2022/01/09 02:28:53;;;;;;;0.65;0.65;;;4.50;99.90;;;;;;5009194;28;20668;-86
2022/01/09 02:31:19;;;;;;;2.33;1.50;;;;;;;;;;4994778;28;20196;-86
2022/01/09 02:33:51;;;;;;;1.50;1.50;;;4.70;99.90;;;;;;4991299;28;20279;-87
2022/01/09 02:36:17;;;;;;;1.65;1.65;;;;;;;;;;5000231;28;20197;-86
2022/01/09 02:38:49;;;;;;;1.60;1.60;;;4.80;99.90;;;;;;5008846;28;20189;-86
2022/01/09 02:41:15;;;;;;;1.52;1.52;;;4.40;99.90;;;;;;4980452;28;20192;-85
2022/01/09 02:43:44;;;;;;;2.20;2.10;;;4.80;99.90;;;;;;5008226;28;20300;-86
2022/01/09 02:47:08;;;;;;;1.40;1.40;;;4.80;99.90;;;;;;5016584;23;20883;-85
2022/01/09 02:49:35;;;;;;;1.90;1.90;;;5.50;99.90;;;;;;4993498;28;20568;-86
2022/01/09 02:55:39;;;;;;;1.50;1.50;;;5.70;99.90;;;;;;4928153;29;20215;-86
2022/01/09 02:58:08;;;;;;;1.30;1.30;;;4.70;99.90;;;;;;4940468;28;20225;-86
2022/01/09 03:00:59;;;;;;;2.70;2.70;;;4.70;99.90;;;;;;4976653;28;20554;-86
2022/01/09 03:03:25;;;;;;;2.35;2.35;;;4.60;99.90;;;;;;4990457;28;20650;-85
2022/01/09 03:05:58;;;;;;;2.17;2.07;;;;;;;;;;5007606;28;20215;-86
2022/01/09 03:08:26;;;;;;;3.20;3.10;;;4.80;99.90;;;;;;4988542;28;20892;-86
2022/01/09 03:10:54;;;;;;;4.03;3.92;;;4.90;99.90;;;;;;4990014;28;20184;-86
2022/01/09 03:13:21;;;;;;;3.25;3.15;;;;;;;;;;4988329;28;20196;-86
2022/01/09 03:15:51;;;;;;;4.60;4.40;;;4.80;99.90;;;;;;4989871;28;20291;-86
2022/01/09 03:18:44;;;;;;;2.80;2.70;;;4.90;99.90;;;;;;4991704;28;20179;-86
2022/01/09 03:21:15;;;;;;;1.52;1.42;;;5.00;99.90;;;;;;5001522;28;20185;-86
2022/01/09 03:23:43;;;;;;;2.20;2.10;;;4.90;99.90;;;;;;4991057;28;20192;-85
2022/01/09 03:26:09;;;;;;;6.13;1.83;;;4.90;99.90;;;;;;4987411;28;20696;-84
2022/01/09 03:28:35;;;;;;;2.60;2.40;;;;;;;;;;5007567;28;20243;-85
2022/01/09 03:31:02;;;;;;;2.67;2.10;;;;;;;;;;4988198;28;20546;-85
2022/01/09 03:33:28;;;;;;;2.78;2.10;;;;;;;;;;4989751;28;20173;-85
2022/01/09 03:36:00;;;;;;;1.70;1.70;;;4.90;99.90;;;;;;5007120;28;20185;-84
2022/01/09 03:38:26;;;;;;;4.97;1.85;;;;;;;;;;4974715;28;20414;-86
2022/01/09 03:40:51;;;;;;;4.78;1.45;;;4.80;99.90;;;;;;4989682;28;20223;-85
2022/01/09 03:43:17;;;;;;;3.40;1.60;;;;;;;;;;4987912;28;20209;-86
2022/01/09 03:46:12;;;;;;;2.30;2.10;;;4.90;99.90;;;;;;4989412;28;20299;-86
2022/01/09 03:48:36;;;;;;;1.38;1.27;;;4.90;99.90;;;;;;4994024;28;20247;-86
2022/01/09 03:51:10;;;;;;;3.10;1.90;;;4.90;99.90;;;;;;4985704;28;20184;-85
2022/01/09 03:53:39;;;;;;;5.15;1.67;;;5.00;99.90;;;;;;4989416;28;20641;-86
2022/01/09 03:56:08;;;;;;;2.25;1.33;;;5.00;99.90;;;;;;4988316;28;20196;-86
2022/01/09 03:58:36;;;;;;;4.53;2.15;;;4.90;99.90;;;;;;4989974;28;20239;-86
2022/01/09 04:01:06;;;;;;;4.97;1.50;;;5.10;99.90;;;;;;4987966;28;20220;-85
2022/01/09 04:03:32;;;;;;;8.80;1.70;;;;;;;;;;4983034;28;20184;-84
2022/01/09 04:06:00;;;;;;;3.42;2.22;;;;;;;;;;5004798;28;20212;-85
2022/01/09 04:08:35;;;;;;;3.38;2.60;;;5.10;99.90;;;;;;5006894;28;20176;-85
2022/01/09 04:11:28;;;;;;;5.70;4.43;;;5.10;99.90;;;;;;4981419;28;20219;-86
2022/01/09 04:13:59;;;;;;;8.20;3.75;;;5.10;99.90;;;;;;4997610;28;20184;-86
2022/01/09 04:16:26;;;;;;;6.63;4.68;;;5.10;99.90;;;;;;4987564;28;20475;-86
2022/01/09 04:18:56;;;;;;;10.13;4.07;;;5.20;99.90;;;;;;5006466;28;20180;-86
2022/01/09 04:21:22;;;;;;;11.02;3.70;;;;;;;;;;4987575;28;20567;-86
2022/01/09 04:23:49;;;;;;;4.00;3.38;;;;;;;;;;5008189;28;20546;-87
2022/01/09 04:26:18;;;;;;;15.57;3.40;;;5.40;99.90;;;;;;4989369;28;20316;-85
2022/01/09 04:28:45;;;;;;;13.07;3.75;;;;;;;;;;4989555;28;20172;-86
2022/01/09 04:31:10;;;;;;;18.23;3.42;;;5.30;99.90;;;;;;4987796;28;20196;-86
2022/01/09 04:33:36;;;;;;;11.73;4.77;;;;;;;;;;5008665;28;20234;-85
2022/01/09 04:36:02;;;;;;;16.87;5.10;;;5.50;99.90;;;;;;5005043;28;20188;-85
2022/01/09 04:38:28;;;;;;;16.80;3.60;;;;;;;;;;4993560;28;20507;-85
2022/01/09 04:40:54;;;;;;;9.38;2.55;;;5.50;99.90;;;;;;5013609;28;20191;-85
2022/01/09 04:43:20;;;;;;;12.90;5.13;;;;;;;;;;5012704;28;20552;-86
2022/01/09 04:45:46;;;;;;;16.17;3.83;;;;;;;;;;5013287;28;20251;-85
2022/01/09 04:48:17;;;;;;;10.05;4.10;;;5.60;99.90;;;;;;5009413;28;20217;-86
2022/01/09 04:50:47;;;;;;;19.25;4.07;;;5.50;99.90;;;;;;5011573;28;20203;-85
2022/01/09 04:53:13;;;;;;;17.50;3.63;;;5.50;99.90;;;;;;5022027;28;20176;-86
2022/01/09 04:55:50;;;;;;;14.67;4.33;;;5.50;99.90;;;;;;5000199;28;20584;-87
2022/01/09 04:58:16;;;;;;;22.40;5.43;;;5.50;99.90;;;;;;4996805;28;20459;-86
2022/01/09 05:00:42;;;;;;;20.00;5.60;;;5.60;99.90;;;;;;5013700;28;20179;-85
2022/01/09 05:03:17;;;;;;;13.73;4.70;;;5.50;99.90;;;;;;4994815;28;20310;-88
2022/01/09 05:05:43;;;;;;;10.52;4.32;;;;;;;;;;4992115;28;20214;-85
2022/01/09 05:08:09;;;;;;;9.07;3.42;;;;;;;;;;5009954;28;20344;-86
2022/01/09 05:10:35;;;;;;;16.58;5.65;;;5.60;99.90;;;;;;4990113;28;20203;-86
2022/01/09 05:13:01;;;;;;;7.90;3.10;;;;;;;;;;5010267;28;20196;-86
2022/01/09 05:15:27;;;;;;;12.00;4.70;;;;;;;;;;5016847;28;20186;-86
2022/01/09 05:17:58;;;;;;;9.13;4.10;;;;;;;;;;4994887;28;20794;-86
2022/01/09 05:20:24;;;;;;;18.75;9.32;;;;;;;;;;4996299;28;20458;-85
2022/01/09 05:22:53;;;;;;;15.90;8.00;;;5.70;99.90;;;;;;5007717;28;20200;-86
2022/01/09 05:25:19;;;;;;;16.55;7.82;;;;;;;;;;5010872;28;20482;-86
2022/01/09 05:27:44;;;;;;;19.20;7.90;;;5.50;99.90;;;;;;5016088;28;20196;-86
2022/01/09 05:30:10;;;;;;;25.30;7.37;;;5.60;99.90;;;;;;4999737;28;21077;-87
2022/01/09 05:32:39;;;;;;;20.33;7.32;;;4.90;99.90;;;;;;5018532;28;20238;-86
2022/01/09 05:35:05;;;;;;;17.55;6.47;;;5.50;99.90;;;;;;4996144;28;20391;-86
2022/01/09 05:37:31;;;;;;;14.25;4.50;;;;;;;;;;4998704;28;20192;-86
2022/01/09 05:40:23;;;;;;;15.13;5.13;;;5.40;99.90;;;;;;4316660;28;10000714;-87
2022/01/09 05:42:51;;;;;;;9.52;5.97;;;;;;;;;;4987677;28;20199;-86
2022/01/09 05:45:17;;;;;;;27.75;5.80;;;;;;;;;;4987117;28;20320;-87
2022/01/09 05:47:44;;;;;;;11.35;4.38;;;5.50;99.90;;;;;;5013644;28;20220;-87
2022/01/09 05:50:28;;;;;;;17.20;6.05;;;5.60;99.90;;;;;;5012208;28;20556;-87
2022/01/09 05:52:54;;;;;;;15.93;6.43;;;;;;;;;;5019157;28;20194;-88
2022/01/09 05:55:19;;;;;;;17.05;5.30;;;5.40;99.90;;;;;;4989568;28;20565;-88
2022/01/09 05:57:51;;;;;;;33.37;7.10;;;;;;;;;;4991206;28;20189;-87
2022/01/09 06:00:19;;;;;;;14.63;5.00;;;;;;;;;;4986833;28;20676;-88
2022/01/09 06:02:48;;;;;;;10.48;5.40;;;;;;;;;;4997111;28;20294;-88
2022/01/09 06:05:29;;;;;;;9.40;4.35;;;5.50;99.90;;;;;;4988667;28;20567;-88
2022/01/09 06:08:06;;;;;;;15.60;4.90;;;5.50;99.90;;;;;;4989002;28;20769;-88
2022/01/09 06:10:55;;;;;;;15.75;4.97;;;5.60;99.90;;;;;;4999670;28;21751;-89
2022/01/09 06:13:24;;;;;;;15.57;4.25;;;;;;;;;;4999327;28;20168;-88
2022/01/09 06:15:55;;;;;;;12.02;3.70;;;5.50;99.90;;;;;;4999131;28;20224;-87
2022/01/09 06:18:23;;;;;;;13.57;4.50;;;5.50;99.90;;;;;;5015354;28;20191;-86
2022/01/09 06:21:00;;;;;;;7.40;3.15;;;5.40;99.90;;;;;;5002270;28;20180;-86
2022/01/09 06:23:28;;;;;;;8.50;2.95;;;5.50;99.90;;;;;;4997900;28;20296;-86
2022/01/09 06:26:05;;;;;;;16.83;3.25;;;5.40;99.90;;;;;;5000139;28;20200;-87
2022/01/09 06:28:34;;;;;;;15.20;3.72;;;5.40;99.90;;;;;;4998533;28;20664;-87
2022/01/09 06:31:04;;;;;;;15.05;3.55;;;5.40;99.90;;;;;;5017137;28;20661;-85
2022/01/09 06:33:48;;;;;;;14.65;3.67;;;5.30;99.90;;;;;;5002810;28;20234;-87
2022/01/09 06:36:14;;;;;;;10.55;3.92;;;5.40;99.90;;;;;;5002057;28;20176;-88
2022/01/09 06:38:40;;;;;;;10.70;2.50;;;;;;;;;;4995729;28;20204;-87
2022/01/09 06:41:10;;;;;;;10.25;3.08;;;;;;;;;;4999363;28;20228;-87
2022/01/09 06:43:36;;;;;;;12.27;3.10;;;;;;;;;;4999854;28;20606;-88
2022/01/09 06:46:02;;;;;;;7.50;3.60;;;;;;;;;;5000072;28;20211;-88
2022/01/09 06:48:31;;;;;;;6.53;2.78;;;5.40;99.90;;;;;;4994835;28;20455;-87
2022/01/09 06:50:57;;;;;;;13.45;4.32;;;;;;;;;;4999508;28;20205;-87
2022/01/09 06:53:23;;;;;;;7.25;3.53;;;;;;;;;;4999947;28;20662;-87
2022/01/09 06:55:49;;;;;;;14.93;3.17;;;;;;;;;;4994276;28;20562;-86
2022/01/09 06:58:18;;;;;;;7.63;3.80;;;;;;;;;;5009694;28;20214;-87
2022/01/09 07:00:45;;;;;;;11.77;3.72;;;;;;;;;;4997370;28;20441;-85
2022/01/09 07:03:12;;;;;;;8.43;3.92;;;;;;;;;;5005068;28;20207;-86
2022/01/09 07:05:37;;;;;;;9.10;4.50;;;5.50;99.90;;;;;;4995924;28;20885;-87
2022/01/09 07:08:04;;;;;;;6.93;3.80;;;;;;;;;;5018668;28;20196;-86
2022/01/09 07:10:30;;;;;;;13.88;4.30;;;5.20;99.90;;;;;;4991803;28;20247;-86
2022/01/09 07:12:56;;;;;;;2.88;2.53;;;;;;;;;;4989260;28;20261;-86
2022/01/09 07:15:22;;;;;;;15.65;4.35;;;5.30;99.90;;;;;;5006841;28;20188;-87
2022/01/09 07:17:48;;;;;;;7.27;3.43;;;;;;;;;;5006192;28;20205;-87
2022/01/09 07:20:17;;;;;;;11.23;4.60;;;;;;;;;;5008041;28;20246;-87
2022/01/09 07:22:43;;;;;;;9.82;4.55;;;5.40;99.90;;;;;;5005739;28;20479;-87
2022/01/09 07:25:09;;;;;;;10.33;4.90;;;5.20;99.90;;;;;;4990010;28;20298;-87
2022/01/09 07:27:35;;;;;;;21.15;5.45;;;5.30;99.90;;;;;;4988195;28;20192;-88
2022/01/09 07:30:02;;;;;;;17.38;4.70;;;5.30;99.90;;;;;;4990537;28;20219;-89
2022/01/09 07:32:29;;;;;;;12.43;4.13;;;;;;;;;;4988621;28;20598;-88
2022/01/09 07:34:57;;;;;;;14.50;4.82;;;;;;;;;;5007874;28;20320;-87
2022/01/09 07:37:23;;;;;;;12.02;3.95;;;5.30;99.90;;;;;;5005344;28;20185;-86
2022/01/09 07:39:51;;;;;;;13.68;6.15;;;;;;;;;;4990173;28;20188;-87
2022/01/09 07:42:17;;;;;;;5.72;3.00;;;;;;;;;;4988536;28;20180;-87
2022/01/09 07:44:48;;;;;;;5.90;3.70;;;5.10;99.90;;;;;;4990801;28;20212;-86
2022/01/09 07:47:14;;;;;;;10.20;4.15;;;5.10;99.90;;;;;;5008519;28;20224;-87
2022/01/09 07:49:47;;;;;;;10.93;3.50;;;5.30;99.90;;;;;;5012380;28;20731;-87
2022/01/09 07:52:18;;;;;;;3.17;2.30;;;5.10;99.90;;;;;;5011171;28;20184;-86
2022/01/09 07:54:44;;;;;;;6.88;4.20;;;;;;;;;;5009888;28;20207;-87
2022/01/09 07:57:17;;;;;;;7.80;3.20;;;;;;;;;;5012795;28;20410;-86
2022/01/09 07:59:43;;;;;;;5.70;4.28;;;;;;;;;;5017628;28;20168;-86
2022/01/09 08:02:09;;;;;;;4.65;3.90;;;5.20;99.90;;;;;;5018726;28;20234;-86
2022/01/09 08:04:47;;;;;;;3.83;3.53;;;5.10;99.90;;;;;;4991555;28;20269;-87
2022/01/09 08:07:13;;;;;;;7.80;4.45;;;;;;;;;;5008266;28;20212;-86
2022/01/09 08:09:57;;;;;;;;;;;;;;;;;;;;;
2022/01/09 08:12:23;;;;;;;13.02;6.00;;;;;;;;;;4989564;28;20908;-86
2022/01/09 08:14:51;;;;;;;11.50;5.38;;;5.30;99.90;;;;;;5014590;28;20263;-87
2022/01/09 08:17:17;;;;;;;13.70;5.47;;;;;;;;;;4993048;28;20186;-89
2022/01/09 08:19:43;;;;;;;12.50;4.88;;;5.20;99.90;;;;;;4999026;28;20270;-86
2022/01/09 08:22:09;;;;;;;8.40;5.20;;;5.20;99.90;;;;;;5012081;28;20250;-86
2022/01/09 08:24:36;;;;;;;8.60;4.30;;;5.20;99.90;;;;;;4999627;28;20459;-86
2022/01/09 08:27:03;;;;;;;4.85;4.40;;;5.20;99.90;;;;;;5012736;28;20188;-87
2022/01/09 08:29:37;;;;;;;5.95;4.05;;;5.30;99.90;;;;;;4994469;28;20681;-85
2022/01/09 08:32:04;;;;;;;8.80;3.97;;;5.10;99.90;;;;;;4991806;28;20182;-88
2022/01/09 08:34:33;;;;;;;10.20;4.13;;;5.30;99.90;;;;;;5017833;28;20188;-88
2022/01/09 08:36:59;;;;;;;15.52;4.57;;;5.40;99.90;;;;;;4991791;28;20191;-87
2022/01/09 08:39:25;;;;;;;2.90;1.83;;;;;;;;;;4996234;28;20230;-87
2022/01/09 08:41:51;;;;;;;15.95;5.10;;;;;;;;;;5012471;28;20485;-88
2022/01/09 08:44:17;;;;;;;13.38;4.90;;;5.30;99.90;;;;;;5014415;28;20203;-89
2022/01/09 08:46:43;;;;;;;10.63;3.80;;;;;;;;;;5011171;28;20220;-89
2022/01/09 08:49:09;;;;;;;8.95;4.03;;;5.30;99.90;;;;;;4991782;28;20181;-84
2022/01/09 08:51:35;;;;;;;9.63;3.30;;;5.30;99.90;;;;;;4994684;28;20688;-86
2022/01/09 08:54:01;;;;;;;8.68;3.80;;;;;;;;;;5012457;28;20439;-86
2022/01/09 08:56:28;;;;;;;6.97;3.63;;;5.30;99.90;;;;;;5015544;28;20230;-87
2022/01/09 08:58:54;;;;;;;7.43;3.80;;;;;;;;;;5012292;28;20192;-87
2022/01/09 09:01:20;;;;;;;15.13;4.15;;;;;;;;;;5013521;28;20176;-89
2022/01/09 09:03:46;;;;;;;14.52;5.47;;;;;;;;;;5011579;28;20218;-87
2022/01/09 09:06:15;;;;;;;13.60;4.25;;;5.40;99.90;;;;;;4999234;28;20259;-89
2022/01/09 09:08:41;;;;;;;10.45;3.90;;;;;;;;;;4992868;28;20290;-88
2022/01/09 09:11:16;;;;;;;6.73;3.00;;;4.70;99.90;;;;;;4663362;28;10000126;-87
2022/01/09 09:13:42;;;;;;;5.28;3.85;;;;;;;;;;4989733;28;20939;-86
2022/01/09 09:16:09;;;;;;;2.47;2.35;;;5.50;99.90;;;;;;4994089;28;20185;-86
2022/01/09 09:18:36;;;;;;;5.32;4.00;;;;;;;;;;4991461;28;20172;-87
2022/01/09 09:21:02;;;;;;;8.50;3.90;;;;;;;;;;4993170;28;20200;-87
2022/01/09 09:23:28;;;;;;;7.68;2.72;;;;;;;;;;4998838;28;20181;-86
2022/01/09 09:25:54;;;;;;;14.05;3.92;;;5.60;99.90;;;;;;5001242;28;20314;-88
2022/01/09 09:28:20;;;;;;;24.03;3.40;;;;;;;;;;5015537;28;20256;-86
2022/01/09 09:30:46;;;;;;;6.35;2.85;;;;;;;;;;4991760;28;20222;-87
2022/01/09 09:33:12;;;;;;;10.55;3.45;;;5.30;99.90;;;;;;5016914;28;20176;-86
2022/01/09 09:35:50;;;;;;;5.33;2.80;;;5.40;99.90;;;;;;4992877;28;20227;-87
2022/01/09 09:38:18;;;;;;;11.45;2.88;;;5.40;99.90;;;;;;4998105;28;20605;-88
2022/01/09 09:40:50;;;;;;;9.00;2.78;;;5.40;99.90;;;;;;5001604;28;20725;-88
2022/01/09 09:43:35;;;;;;;4.68;3.17;;;5.40;99.90;;;;;;4994150;28;20201;-87
2022/01/09 09:46:02;;;;;;;5.15;2.55;;;;;;;;;;4994551;28;20251;-86
2022/01/09 09:48:30;;;;;;;9.63;2.83;;;5.60;99.90;;;;;;4995746;28;20216;-85
2022/01/09 09:50:57;;;;;;;7.60;3.22;;;5.50;99.90;;;;;;4993341;28;20185;-84
2022/01/09 09:53:28;;;;;;;9.23;3.47;;;5.50;99.90;;;;;;4997494;28;20283;-86
2022/01/09 09:55:56;;;;;;;9.43;3.17;;;5.30;99.90;;;;;;4992812;28;20196;-85
2022/01/09 09:58:24;;;;;;;7.30;3.88;;;5.10;99.90;;;;;;5011668;28;20211;-87
2022/01/09 10:01:03;;;;;;;4.50;2.40;;;5.20;99.90;;;;;;4993277;28;20610;-85
2022/01/09 10:03:32;;;;;;;10.60;3.80;;;5.30;99.90;;;;;;4995655;28;20262;-86
2022/01/09 10:06:06;;;;;;;6.40;3.63;;;5.20;99.90;;;;;;4993532;28;20219;-86
2022/01/09 10:08:40;;;;;;;6.72;3.22;;;5.00;99.90;;;;;;5012009;28;20188;-86
2022/01/09 10:11:19;;;;;;;5.60;3.40;;;5.20;99.90;;;;;;4994843;28;20282;-85
2022/01/09 10:14:05;;;;;;;10.68;3.75;;;5.10;99.90;;;;;;4997784;28;20549;-86
2022/01/09 10:16:45;;;;;;;8.25;3.70;;;5.10;99.90;;;;;;4992847;28;20200;-87
2022/01/09 10:19:37;;;;;;;;;;;;;;;;;;;;;
2022/01/09 10:22:37;;;;;;;7.03;5.35;;;5.30;99.90;;;;;;5014099;28;20640;-87
2022/01/09 10:25:43;;;;;;;13.50;3.85;;;5.30;99.90;;;;;;4992542;28;20281;-86
2022/01/09 10:28:41;;;;;;;7.25;3.78;;;5.50;99.90;;;;;;4975943;28;20576;-87
2022/01/09 10:31:46;;;;;;;12.13;4.30;;;4.80;99.90;;;;;;4997202;28;20514;-86
2022/01/09 10:37:37;;;;;;;;;;;;;;;;;;;;;
2022/01/09 10:40:08;;;;;;;4.07;3.50;;;5.60;99.90;;;;;;4996522;28;20177;-84
2022/01/09 10:42:46;;;;;;;5.60;4.05;;;5.50;99.90;;;;;;4999284;28;20239;-87
2022/01/09 10:45:23;;;;;;;6.47;2.63;;;7.00;99.90;;;;;;4988858;28;20677;-87
2022/01/09 10:48:10;;;;;;;9.30;4.15;;;5.80;99.90;;;;;;4976173;28;20288;-88
2022/01/09 10:50:44;;;;;;;7.07;3.33;;;5.80;99.90;;;;;;4970794;28;20201;-85
2022/01/09 10:53:38;;;;;;;8.95;3.80;;;5.60;99.90;;;;;;4980650;28;20281;-84
2022/01/09 10:56:20;;;;;;;11.68;6.80;;;5.50;99.90;;;;;;4986265;28;20189;-87
2022/01/09 10:58:54;;;;;;;7.35;3.08;;;7.30;99.90;;;;;;4989216;28;20188;-87
2022/01/09 11:01:50;;;;;;;5.53;4.25;;;5.70;99.90;;;;;;4971452;28;20182;-82
2022/01/09 11:04:22;;;;;;;9.18;5.07;;;;;;;;;;4966710;28;20208;-88
2022/01/09 11:06:48;;;;;;;14.52;5.03;;;;;;;;;;4963641;28;20663;-83
2022/01/09 11:09:17;;;;;;;7.77;4.53;;;;;;;;;;4949494;28;20613;-83
2022/01/09 11:11:50;;;;;;;5.43;4.43;;;5.60;99.90;;;;;;4960594;28;20472;-86
2022/01/09 11:14:20;;;;;;;4.45;3.80;;;5.70;99.90;;;;;;4968819;28;20201;-87
2022/01/09 11:16:51;;;;;;;9.63;4.70;;;5.60;99.90;;;;;;4986550;28;20224;-86
2022/01/09 11:19:19;;;;;;;8.57;4.55;;;5.50;99.90;;;;;;4980901;28;20180;-87
2022/01/09 11:21:56;;;;;;;6.07;4.25;;;5.60;99.90;;;;;;4985463;28;20612;-87
2022/01/09 11:24:50;;;;;;;8.98;4.88;;;5.70;99.90;;;;;;4992469;28;20172;-87
2022/01/09 11:28:12;;;;;;;15.77;4.47;;;5.50;99.90;;;;;;4978429;28;20211;-89
2022/01/09 11:31:15;;;;;;;11.35;6.30;;;3.50;99.90;;;;;;4952173;28;20212;-88
2022/01/09 11:34:05;;;;;;;8.15;5.40;;;5.40;99.90;;;;;;4965745;28;20188;-89
2022/01/09 11:36:50;;;;;;;6.82;5.00;;;5.40;99.90;;;;;;4995799;28;20181;-89
2022/01/09 11:40:07;;;;;;;14.38;4.93;;;5.70;99.90;;;;;;4964897;28;20197;-86
2022/01/09 11:42:33;;;;;;;10.77;5.32;;;5.50;99.90;;;;;;4973732;28;20172;-89
2022/01/09 11:45:22;;;;;;;4.27;3.97;;;5.70;99.90;;;;;;4977862;28;20212;-85
2022/01/09 11:48:11;;;;;;;6.10;4.60;;;5.60;99.90;;;;;;4978647;28;20303;-81
2022/01/09 11:51:09;;;;;;;9.23;4.25;;;8.30;99.90;;;;;;4970237;28;20264;-85
2022/01/09 11:54:30;;;;;;;7.07;4.85;;;5.60;99.90;;;;;;4997680;28;20243;-83
2022/01/09 11:57:14;;;;;;;5.43;3.78;;;5.70;99.90;;;;;;5006776;28;20187;-87
2022/01/09 11:59:53;;;;;;;4.70;4.40;;;5.80;99.90;;;;;;4999629;28;20628;-85
2022/01/09 12:02:30;;;;;;;7.13;4.07;;;6.20;99.90;;;;;;4978596;28;20210;-87
2022/01/09 12:05:15;;;;;;;8.10;4.20;;;5.60;99.90;;;;;;4998567;28;20454;-86
2022/01/09 12:08:08;;;;;;;4.20;3.97;;;5.80;99.90;;;;;;4998434;28;20169;-87
2022/01/09 12:10:57;;;;;;;6.82;4.40;;;5.70;99.90;;;;;;4951262;28;20221;-88
2022/01/09 12:13:42;;;;;;;5.80;4.40;;;5.80;99.90;;;;;;4954791;28;20651;-86
2022/01/09 12:16:50;;;;;;;12.90;5.93;;;5.80;99.90;;;;;;4956353;28;20185;-86
2022/01/09 12:19:54;;;;;;;10.02;3.70;;;6.00;99.90;;;;;;4977601;28;20611;-85
2022/01/09 12:23:01;;;;;;;;;;;;;;;;;;;;;
2022/01/09 12:25:29;;;;;;;3.38;3.17;;;5.90;99.90;;;;;;4939460;29;20307;-87
2022/01/09 12:28:15;;;;;;;;;;;;;;;;;;;;;
2022/01/09 12:30:55;;;;;;;5.68;4.40;;;6.00;99.90;;;;;;4992236;28;20181;-86
2022/01/09 12:33:35;;;;;;;9.82;3.78;;;6.40;99.90;;;;;;4990250;28;20203;-85
2022/01/09 12:36:41;;;;;;;6.00;4.95;;;5.60;99.90;;;;;;5005740;28;20268;-86
2022/01/09 12:39:18;;;;;;;8.40;3.97;;;5.70;99.90;;;;;;4954702;28;20259;-85
2022/01/09 12:41:46;;;;;;;8.60;4.95;;;;;;;;;;4969448;28;20191;-83
2022/01/09 12:44:36;;;;;;;9.85;4.68;;;5.80;99.90;;;;;;4969713;28;20212;-84
2022/01/09 12:47:40;;;;;;;4.82;4.53;;;6.00;99.90;;;;;;4979776;28;20197;-85
2022/01/09 12:50:47;;;;;;;;;;;;;;;;;;;;;
2022/01/09 12:53:57;;;;;;;15.02;5.68;;;6.10;99.90;;;;;;5012750;28;20201;-83
2022/01/09 13:00:36;;;;;;;;;;;;;;;;;;;;;
2022/01/09 13:03:30;;;;;;;;;;;;;;;;;;;;;
2022/01/09 13:06:32;;;;;;;;;;;;;;;;;;;;;
2022/01/09 13:09:16;;;;;;;6.55;5.20;;;5.90;99.90;;;;;;5009009;28;20271;-86
2022/01/09 13:11:57;;;;;;;8.50;6.15;;;5.90;99.90;;;;;;5004472;28;20187;-86
2022/01/09 13:14:43;;;;;;;5.88;5.32;;;5.60;99.90;;;;;;5005933;28;20685;-86
2022/01/09 13:17:26;;;;;;;7.13;6.03;;;5.70;99.90;;;;;;4991219;28;20178;-86
2022/01/09 13:20:19;;;;;;;12.85;5.97;;;5.80;99.90;;;;;;4992395;28;20182;-84
2022/01/09 13:23:14;;;;;;;9.93;5.80;;;5.60;99.90;;;;;;5018502;28;20258;-86
2022/01/09 13:25:47;;;;;;;10.73;5.13;;;5.80;99.90;;;;;;4997629;28;20230;-85
2022/01/09 13:28:21;;;;;;;10.32;5.38;;;5.90;99.90;;;;;;5005426;28;20179;-84
2022/01/09 13:30:56;;;;;;;5.50;5.10;;;5.80;99.90;;;;;;5001635;28;20223;-87
2022/01/09 13:33:25;;;;;;;9.43;5.55;;;5.80;99.90;;;;;;5020890;28;20236;-85
2022/01/09 13:35:56;;;;;;;6.10;4.80;;;7.10;99.90;;;;;;4997357;28;20604;-85
2022/01/09 13:38:25;;;;;;;9.45;4.47;;;7.10;99.90;;;;;;4996129;28;20268;-86
2022/01/09 13:41:00;;;;;;;4.82;4.32;;;7.00;99.90;;;;;;5020628;28;20196;-84
2022/01/09 13:43:26;;;;;;;7.77;4.67;;;8.70;99.90;;;;;;5001660;28;20251;-86
2022/01/09 13:45:52;;;;;;;5.93;4.10;;;12.50;99.90;;;;;;4995043;28;20479;-85
2022/01/09 13:48:21;;;;;;;4.60;4.30;;;8.90;99.90;;;;;;4997974;28;20457;-86
2022/01/09 13:50:56;;;;;;;4.60;4.30;;;8.70;99.90;;;;;;4996723;28;20208;-88
2022/01/09 13:53:24;;;;;;;5.63;3.63;;;8.00;99.90;;;;;;5012752;28;20187;-85
2022/01/09 13:55:50;;;;;;;4.88;4.15;;;7.80;99.90;;;;;;4997800;28;20191;-87
2022/01/09 13:58:20;;;;;;;7.00;4.73;;;7.90;99.90;;;;;;4998819;28;20189;-86
2022/01/09 14:00:49;;;;;;;5.18;4.65;;;7.60;99.90;;;;;;4999880;28;20283;-86
2022/01/09 14:03:26;;;;;;;5.68;4.70;;;7.50;99.90;;;;;;4990174;28;20530;-85
2022/01/09 14:08:50;;;;;;;8.90;4.90;;;6.70;99.90;;;;;;4970453;28;20201;-85
2022/01/09 14:11:15;;;;;;;6.65;3.85;;;7.00;99.90;;;;;;5015233;28;20192;-84
2022/01/09 14:13:44;;;;;;;5.43;4.07;;;6.70;99.90;;;;;;4992131;28;20192;-84
2022/01/09 14:16:14;;;;;;;6.93;4.13;;;6.80;99.90;;;;;;4994451;28;20559;-83
2022/01/09 14:18:43;;;;;;;6.63;4.03;;;6.70;99.90;;;;;;5010696;28;20235;-85
2022/01/09 14:21:15;;;;;;;5.70;4.47;;;6.40;99.90;;;;;;4994254;28;20177;-84
2022/01/09 14:23:44;;;;;;;5.85;4.63;;;6.30;99.90;;;;;;4991775;28;20219;-84
2022/01/09 14:26:16;;;;;;;5.35;3.42;;;6.30;99.90;;;;;;4993200;28;20216;-81
2022/01/09 14:28:44;;;;;;;6.82;4.00;;;6.30;99.90;;;;;;5008232;28;20177;-84
2022/01/09 14:31:18;;;;;;;4.70;2.55;;;6.30;99.90;;;;;;5014733;28;20542;-83
2022/01/09 14:33:54;;;;;;;7.43;2.95;;;6.30;99.90;;;;;;5011247;28;20181;-86
2022/01/09 14:36:44;;;;;;;;;;;;;;;;;;;;;
2022/01/09 14:39:10;;;;;;;9.45;4.00;;;6.20;99.90;;;;;;5018479;28;20558;-87
2022/01/09 14:41:37;;;;;;;2.30;2.10;;;6.00;99.90;;;;;;5000344;28;20208;-86
2022/01/09 14:44:10;;;;;;;5.25;4.45;;;5.90;99.90;;;;;;4997102;28;20255;-82
2022/01/09 14:47:01;;;;;;;4.05;3.70;;;5.90;99.90;;;;;;5001922;28;20226;-89
2022/01/09 14:49:27;;;;;;;10.02;4.70;;;5.80;99.90;;;;;;4997700;28;20192;-86